Time;durP1;ratioP1;P1;durP2;ratioP2;P2;SDS_P1;SDS_P2;PMS_P1;PMS_P2;Temp;Humidity;BMP_temperature;BMP_pressure;BME280_temperature;BME280_humidity;BME280_pressure;Samples;Min_cycle;Max_cycle;Signal;HPM_P1;HPM_P2
2021/08/06 00:00:34;;;;;;;6.08;5.22;;;;;;;15.84;88.16;98840.70;1710471;83;26965;-77
2021/08/06 00:03:02;;;;;;;5.97;5.00;;;;;;;15.85;88.26;98833.30;1687280;83;25777;-78
2021/08/06 00:05:29;;;;;;;5.20;4.67;;;;;;;15.83;88.46;98830.98;1710513;83;26385;-71
2021/08/06 00:07:55;;;;;;;16.48;5.80;;;;;;;15.83;88.32;98830.17;1710400;83;25841;-69
2021/08/06 00:10:21;;;;;;;5.30;4.80;;;;;;;15.83;88.36;98831.53;1710270;83;25715;-70
2021/08/06 00:12:48;;;;;;;5.80;4.90;;;;;;;15.82;88.43;98825.31;1686802;83;27350;-70
2021/08/06 00:15:14;;;;;;;8.48;5.12;;;;;;;15.83;88.53;98825.52;1709995;83;25689;-71
2021/08/06 00:17:40;;;;;;;10.48;5.10;;;;;;;15.82;88.57;98825.91;1686956;83;25747;-71
2021/08/06 00:20:08;;;;;;;6.00;5.17;;;;;;;15.82;88.61;98815.00;1710124;83;25764;-70
2021/08/06 00:22:34;;;;;;;5.97;4.75;;;;;;;15.82;88.73;98813.63;1687210;83;25701;-71
2021/08/06 00:25:01;;;;;;;6.25;4.58;;;;;;;15.82;88.79;98806.81;1710508;83;28057;-71
2021/08/06 00:27:30;;;;;;;8.00;4.42;;;;;;;15.82;89.03;98798.05;1710352;83;25770;-72
2021/08/06 00:29:56;;;;;;;5.75;5.03;;;;;;;15.84;88.96;98796.31;1710594;83;34912;-72
2021/08/06 00:32:23;;;;;;;7.58;4.70;;;;;;;15.84;88.94;98794.95;1710161;83;26343;-72
2021/08/06 00:34:49;;;;;;;7.33;4.60;;;;;;;15.83;88.91;98790.64;1710440;83;25694;-72
2021/08/06 00:37:15;;;;;;;8.53;4.30;;;;;;;15.82;88.93;98787.14;1710462;83;27912;-72
2021/08/06 00:39:42;;;;;;;5.10;4.30;;;;;;;15.81;88.93;98773.30;1710577;83;25781;-71
2021/08/06 00:42:08;;;;;;;4.95;4.40;;;;;;;15.81;89.04;98775.25;1710452;83;25670;-72
2021/08/06 00:44:34;;;;;;;6.15;4.28;;;;;;;15.81;89.05;98773.30;1710080;83;26424;-71
2021/08/06 00:47:01;;;;;;;6.03;3.70;;;;;;;15.81;89.20;98761.03;1710486;83;25658;-72
2021/08/06 00:49:27;;;;;;;4.10;3.80;;;;;;;15.79;89.16;98760.64;1710415;83;27320;-72
2021/08/06 00:51:54;;;;;;;4.12;3.72;;;;;;;15.80;89.22;98760.05;1710450;83;25732;-72
2021/08/06 00:54:22;;;;;;;6.65;3.77;;;;;;;15.80;89.35;98755.96;1710596;83;25812;-72
2021/08/06 00:56:49;;;;;;;6.23;3.63;;;;;;;15.80;89.48;98753.23;1710705;83;25653;-72
2021/08/06 00:59:16;;;;;;;11.03;4.42;;;;;;;15.79;89.41;98753.83;1710449;83;25682;-73
2021/08/06 01:01:50;;;;;;;4.15;3.75;;;;;;;15.79;89.47;98757.14;1710491;83;28130;-73
2021/08/06 01:04:24;;;;;;;4.60;3.60;;;;;;;15.77;89.49;98741.16;1710154;83;25715;-73
2021/08/06 01:06:56;;;;;;;5.83;3.72;;;;;;;15.75;89.59;98743.50;1710224;83;25667;-74
2021/08/06 01:09:55;;;;;;;5.90;3.70;;;;;;;15.75;90.40;98742.66;1689363;83;25782;-74
2021/08/06 01:12:29;;;;;;;4.15;3.70;;;;;;;15.73;90.70;98723.19;1710586;83;25765;-73
2021/08/06 01:15:00;;;;;;;6.97;3.20;;;;;;;15.69;90.98;98726.67;1710547;83;27436;-74
2021/08/06 01:17:30;;;;;;;4.45;3.92;;;;;;;15.66;91.21;98715.19;1710500;83;25750;-73
2021/08/06 01:20:08;;;;;;;4.12;3.55;;;;;;;15.65;91.38;98714.98;1710562;83;25632;-73
2021/08/06 01:23:03;;;;;;;3.72;3.42;;;;;;;15.62;91.51;98707.56;1710634;83;25727;-74
2021/08/06 01:26:04;;;;;;;6.35;3.22;;;;;;;15.61;91.71;98698.41;1706286;83;25758;-74
2021/08/06 01:28:38;;;;;;;4.08;3.40;;;;;;;15.58;91.87;98694.52;1710638;83;27332;-72
2021/08/06 01:31:05;;;;;;;4.40;3.62;;;;;;;15.58;92.07;98688.26;1710596;83;25782;-71
2021/08/06 01:33:33;;;;;;;4.65;3.17;;;;;;;15.56;92.20;98683.77;1710549;83;25753;-72
2021/08/06 01:36:00;;;;;;;4.05;2.83;;;;;;;15.55;92.34;98681.64;1710617;83;25929;-72
2021/08/06 01:38:27;;;;;;;12.70;3.25;;;;;;;15.53;92.29;98681.81;1710710;83;25640;-72
2021/08/06 01:41:15;;;;;;;3.45;3.15;;;;;;;15.50;92.40;98671.88;1710560;83;27999;-71
2021/08/06 01:44:25;;;;;;;3.33;3.00;;;;;;;15.49;92.48;98673.62;1710831;83;25651;-72
2021/08/06 01:47:09;;;;;;;3.70;2.62;;;;;;;15.47;92.65;98681.39;1710295;83;25704;-71
2021/08/06 01:49:43;;;;;;;3.95;2.35;;;;;;;15.46;92.87;98671.65;1710600;83;26027;-72
2021/08/06 01:52:15;;;;;;;5.22;2.60;;;;;;;15.43;92.83;98655.50;1710694;83;25745;-70
2021/08/06 01:54:44;;;;;;;2.47;2.27;;;;;;;15.41;92.99;98655.66;1710580;83;28054;-70
2021/08/06 01:57:12;;;;;;;3.20;2.30;;;;;;;15.40;93.07;98645.36;1710583;83;27122;-69
2021/08/06 01:59:40;;;;;;;3.17;2.62;;;;;;;15.38;93.08;98646.33;1710580;83;25665;-70
2021/08/06 02:02:09;;;;;;;2.65;2.45;;;;;;;15.36;93.11;98650.58;1690558;83;26138;-70
2021/08/06 02:04:38;;;;;;;2.67;2.47;;;;;;;15.35;93.21;98657.20;1710826;83;25671;-70
2021/08/06 02:07:04;;;;;;;4.65;2.10;;;;;;;15.33;93.31;98648.64;1710618;83;27370;-69
2021/08/06 02:09:31;;;;;;;4.50;3.27;;;;;;;15.32;93.58;98658.73;1710591;83;25713;-69
2021/08/06 02:11:58;;;;;;;4.65;2.58;;;;;;;15.30;93.57;98639.27;1710694;83;25774;-69
2021/08/06 02:14:24;;;;;;;4.37;2.27;;;;;;;15.30;93.67;98636.55;1710610;83;26460;-69
2021/08/06 02:16:53;;;;;;;4.17;2.40;;;;;;;15.29;93.72;98641.81;1710601;83;25729;-69
2021/08/06 02:19:23;;;;;;;2.87;2.67;;;;;;;15.29;93.83;98635.00;1710799;83;27419;-69
2021/08/06 02:21:54;;;;;;;4.28;2.52;;;;;;;15.28;93.90;98622.53;1710442;83;25759;-68
2021/08/06 02:24:23;;;;;;;2.80;2.40;;;;;;;15.27;94.00;98621.77;1710540;83;25659;-68
2021/08/06 02:26:51;;;;;;;2.50;2.30;;;;;;;15.28;94.05;98625.26;1710692;83;26242;-69
2021/08/06 02:29:21;;;;;;;5.67;2.60;;;;;;;15.27;94.09;98616.88;1710912;83;25729;-68
2021/08/06 02:31:49;;;;;;;2.83;2.25;;;;;;;15.26;94.10;98609.30;1710713;83;27324;-68
2021/08/06 02:34:17;;;;;;;4.40;2.55;;;;;;;15.27;94.13;98610.06;1710570;83;25697;-68
2021/08/06 02:36:47;;;;;;;5.50;2.35;;;;;;;15.25;94.07;98617.25;1710520;83;25814;-67
2021/08/06 02:39:19;;;;;;;2.45;2.25;;;;;;;15.24;94.06;98613.58;1710556;83;25734;-67
2021/08/06 02:41:46;;;;;;;3.08;2.20;;;;;;;15.23;94.00;98595.07;1710726;83;26378;-67
2021/08/06 02:44:13;;;;;;;2.50;2.30;;;;;;;15.23;94.06;98605.20;1710656;83;27348;-67
2021/08/06 02:46:40;;;;;;;2.77;2.22;;;;;;;15.22;94.02;98608.51;1710546;83;25755;-67
2021/08/06 02:49:07;;;;;;;2.25;2.05;;;;;;;15.22;94.11;98603.62;1710544;82;26314;-67
2021/08/06 02:51:34;;;;;;;2.77;2.50;;;;;;;15.21;94.10;98602.08;1710538;83;25915;-67
2021/08/06 02:54:01;;;;;;;3.62;2.60;;;;;;;15.19;94.06;98603.81;1710552;83;25722;-67
2021/08/06 02:56:31;;;;;;;2.42;2.20;;;;;;;15.19;94.12;98601.09;1710256;83;27298;-67
2021/08/06 02:58:57;;;;;;;1.95;1.80;;;;;;;15.19;94.11;98603.81;1698601;83;25819;-66
2021/08/06 03:01:24;;;;;;;3.08;2.08;;;;;;;15.18;94.02;98595.44;1710527;83;25646;-67
2021/08/06 03:03:50;;;;;;;2.02;1.75;;;;;;;15.17;93.92;98592.53;1710468;83;25705;-67
2021/08/06 03:06:16;;;;;;;16.77;2.27;;;;;;;15.17;93.86;98591.17;1710464;83;25700;-67
2021/08/06 03:08:43;;;;;;;2.70;1.75;;;;;;;15.16;93.92;98592.31;1710525;83;28101;-67
2021/08/06 03:11:09;;;;;;;2.08;1.45;;;;;;;15.13;93.82;98588.40;1710629;83;25649;-66
2021/08/06 03:13:36;;;;;;;3.95;1.80;;;;;;;15.11;93.77;98583.92;1710420;83;25786;-67
2021/08/06 03:16:03;;;;;;;5.87;1.62;;;;;;;15.11;93.87;98576.34;1710363;83;25650;-66
2021/08/06 03:18:30;;;;;;;2.87;1.70;;;;;;;15.10;93.95;98577.48;1710725;83;26456;-66
2021/08/06 03:20:56;;;;;;;3.00;1.80;;;;;;;15.09;94.01;98575.36;1710491;83;27410;-66
2021/08/06 03:23:23;;;;;;;2.62;1.50;;;;;;;15.09;94.07;98569.14;1710452;83;26303;-66
2021/08/06 03:25:50;;;;;;;3.70;1.50;;;;;;;15.09;94.11;98573.22;1710662;83;25690;-67
2021/08/06 03:28:17;;;;;;;3.77;1.70;;;;;;;15.09;94.13;98575.95;1710350;83;25733;-67
2021/08/06 03:30:43;;;;;;;3.85;1.45;;;;;;;15.09;94.05;98565.05;1710642;83;25716;-66
2021/08/06 03:33:10;;;;;;;3.65;1.75;;;;;;;15.09;94.11;98566.41;1710531;83;27388;-67
2021/08/06 03:35:36;;;;;;;1.50;1.40;;;;;;;15.09;94.10;98559.61;1710124;83;25694;-67
2021/08/06 03:38:19;;;;;;;3.35;1.57;;;;;;;15.09;94.20;98562.33;1710252;83;25727;-66
2021/08/06 03:40:46;;;;;;;2.00;1.30;;;;;;;15.09;94.22;98554.94;1710489;83;25879;-65
2021/08/06 03:43:14;;;;;;;2.60;1.42;;;;;;;15.09;94.17;98556.89;1710053;83;25769;-66
2021/08/06 03:45:41;;;;;;;2.50;1.70;;;;;;;15.08;94.26;98560.17;1710634;83;28500;-65
2021/08/06 03:48:09;;;;;;;1.42;1.32;;;;;;;15.09;94.23;98563.11;1710396;83;25761;-66
2021/08/06 03:50:37;;;;;;;1.60;1.47;;;;;;;15.10;94.28;98557.87;1710520;83;25772;-67
2021/08/06 03:53:04;;;;;;;3.50;1.45;;;;;;;15.09;94.20;98550.85;1710152;83;26022;-67
2021/08/06 03:55:31;;;;;;;2.50;1.22;;;;;;;15.09;94.26;98548.72;1710607;83;25707;-67
2021/08/06 03:58:00;;;;;;;1.30;1.20;;;;;;;15.10;94.31;98547.54;1687763;83;28265;-67
2021/08/06 04:00:30;;;;;;;1.30;1.20;;;;;;;15.10;94.33;98542.89;1710631;83;26463;-66
2021/08/06 04:02:57;;;;;;;1.30;1.20;;;;;;;15.09;94.21;98543.27;1710285;83;25758;-67
2021/08/06 04:05:23;;;;;;;1.52;1.42;;;;;;;15.09;94.23;98541.33;1710424;83;25903;-67
2021/08/06 04:07:50;;;;;;;1.32;1.22;;;;;;;15.08;94.32;98535.66;1710509;83;25639;-67
2021/08/06 04:10:20;;;;;;;1.60;1.27;;;;;;;15.09;94.23;98538.59;1710461;83;27340;-67
2021/08/06 04:12:48;;;;;;;1.40;1.30;;;;;;;15.09;94.23;98539.96;1710087;83;25762;-67
2021/08/06 04:15:17;;;;;;;3.42;2.22;;;;;;;15.10;94.24;98540.17;1710708;83;25833;-66
2021/08/06 04:17:44;;;;;;;2.87;2.08;;;;;;;15.12;94.28;98539.20;1688744;83;25764;-66
2021/08/06 04:20:12;;;;;;;1.80;1.35;;;;;;;15.12;94.32;98545.23;1686614;83;25919;-67
2021/08/06 04:22:39;;;;;;;1.60;1.50;;;;;;;15.10;94.18;98527.92;1710880;83;26918;-66
2021/08/06 04:25:09;;;;;;;1.70;1.60;;;;;;;15.10;94.16;98531.20;1710461;83;25765;-66
2021/08/06 04:27:35;;;;;;;;;;;;;;;15.10;94.23;98532.00;1713112;83;25815;-66
2021/08/06 04:30:04;;;;;;;1.62;1.10;;;;;;;15.09;94.22;98529.06;1709996;83;26367;-66
2021/08/06 04:32:31;;;;;;;1.53;1.40;;;;;;;15.09;94.32;98533.16;1710330;83;25766;-66
2021/08/06 04:34:58;;;;;;;4.28;1.62;;;;;;;15.09;94.35;98527.70;1710511;83;29540;-66
2021/08/06 04:37:24;;;;;;;1.42;1.32;;;;;;;15.10;94.38;98522.47;1710386;83;25730;-69
2021/08/06 04:39:50;;;;;;;2.08;1.22;;;;;;;15.10;94.30;98525.20;1710480;83;25654;-68
2021/08/06 04:42:18;;;;;;;2.35;1.50;;;;;;;15.09;94.22;98522.85;1710546;83;26267;-67
2021/08/06 04:44:44;;;;;;;1.67;1.57;;;;;;;15.09;94.24;98518.77;1710391;83;25765;-67
2021/08/06 04:47:10;;;;;;;1.52;1.42;;;;;;;15.10;94.24;98514.86;1710499;83;26917;-67
2021/08/06 04:49:37;;;;;;;1.50;1.40;;;;;;;15.10;94.37;98514.30;1709848;83;25647;-67
2021/08/06 04:52:04;;;;;;;2.98;1.52;;;;;;;15.12;94.27;98512.56;1710700;83;26481;-67
2021/08/06 04:54:30;;;;;;;2.00;1.70;;;;;;;15.11;94.27;98511.77;1710690;83;25664;-68
2021/08/06 04:56:57;;;;;;;2.52;1.15;;;;;;;15.09;94.17;98505.92;1684487;83;26050;-67
2021/08/06 04:59:24;;;;;;;2.20;1.45;;;;;;;15.10;94.25;98508.06;1707699;83;27867;-67
2021/08/06 05:01:50;;;;;;;1.85;1.17;;;;;;;15.09;94.17;98505.16;1705873;83;25762;-67
2021/08/06 05:04:17;;;;;;;1.50;1.12;;;;;;;15.09;94.20;98502.43;1684349;84;25807;-67
2021/08/06 05:06:46;;;;;;;1.32;1.27;;;;;;;15.09;94.23;98496.98;1705720;84;26267;-67
2021/08/06 05:09:13;;;;;;;2.12;1.20;;;;;;;15.08;94.16;98494.82;1684474;84;25905;-67
2021/08/06 05:11:39;;;;;;;2.90;1.45;;;;;;;15.10;94.25;98499.89;1705896;84;27350;-67
2021/08/06 05:14:06;;;;;;;2.95;1.55;;;;;;;15.09;94.37;98502.43;1705742;84;25648;-67
2021/08/06 05:16:33;;;;;;;1.20;1.10;;;;;;;15.10;94.40;98510.22;1705817;84;25891;-67
2021/08/06 05:19:00;;;;;;;2.15;1.10;;;;;;;15.11;94.51;98502.82;1705905;83;25709;-66
2021/08/06 05:21:26;;;;;;;1.27;1.17;;;;;;;15.12;94.41;98496.23;1705952;83;25893;-66
2021/08/06 05:23:53;;;;;;;3.15;2.27;;;;;;;15.13;94.53;98501.85;1705827;84;27374;-66
2021/08/06 05:26:19;;;;;;;2.83;1.80;;;;;;;15.13;94.41;98499.13;1705786;83;25706;-66
2021/08/06 05:28:46;;;;;;;2.33;1.20;;;;;;;15.15;94.54;98501.47;1706012;84;25836;-66
2021/08/06 05:31:12;;;;;;;1.85;1.50;;;;;;;15.15;94.50;98502.24;1705669;83;25695;-66
2021/08/06 05:33:38;;;;;;;1.42;1.17;;;;;;;15.17;94.46;98511.39;1684413;84;25818;-66
2021/08/06 05:36:05;;;;;;;1.40;1.30;;;;;;;15.14;94.17;98502.06;1705811;84;27401;-66
2021/08/06 05:38:32;;;;;;;1.50;1.40;;;;;;;15.14;94.37;98503.42;1705769;84;26372;-66
2021/08/06 05:40:58;;;;;;;2.67;1.35;;;;;;;15.13;94.31;98496.41;1705816;83;25794;-67
2021/08/06 05:43:24;;;;;;;1.45;1.35;;;;;;;15.15;94.43;98501.47;1705783;84;25683;-67
2021/08/06 05:45:51;;;;;;;1.95;1.37;;;;;;;15.18;94.72;98495.27;1705706;83;25734;-67
2021/08/06 05:48:18;;;;;;;1.47;1.37;;;;;;;15.17;94.48;98490.41;1705921;84;27638;-67
2021/08/06 05:50:45;;;;;;;2.87;2.33;;;;;;;15.20;94.55;98491.57;1705522;83;26416;-66
2021/08/06 05:53:11;;;;;;;1.85;1.40;;;;;;;15.18;94.42;98487.87;1705658;84;25715;-66
2021/08/06 05:55:38;;;;;;;4.87;3.62;;;;;;;15.20;94.56;98490.21;1705722;84;25770;-66
2021/08/06 05:58:05;;;;;;;3.42;2.95;;;;;;;15.22;94.83;98483.80;1705625;84;25742;-66
2021/08/06 06:00:32;;;;;;;3.15;2.25;;;;;;;15.23;94.56;98482.05;1705567;83;27395;-66
2021/08/06 06:02:58;;;;;;;1.80;1.50;;;;;;;15.23;94.57;98492.94;1705552;83;25679;-66
2021/08/06 06:05:25;;;;;;;2.75;1.45;;;;;;;15.25;94.76;98482.44;1705805;83;25834;-66
2021/08/06 06:07:51;;;;;;;1.72;1.60;;;;;;;15.27;94.71;98485.58;1705672;84;25896;-66
2021/08/06 06:10:21;;;;;;;2.42;1.35;;;;;;;15.26;94.54;98481.28;1705763;83;25682;-66
2021/08/06 06:12:49;;;;;;;1.45;1.35;;;;;;;15.25;94.34;98481.08;1705820;84;27308;-66
2021/08/06 06:15:17;;;;;;;1.60;1.50;;;;;;;15.25;94.38;98483.80;1705753;84;25778;-66
2021/08/06 06:17:45;;;;;;;1.52;1.42;;;;;;;15.26;94.33;98481.88;1705722;84;25754;-67
2021/08/06 06:20:13;;;;;;;2.87;1.62;;;;;;;15.24;94.23;98479.53;1707287;83;25881;-66
2021/08/06 06:22:39;;;;;;;1.37;1.27;;;;;;;15.24;94.37;98483.62;1710545;83;25699;-66
2021/08/06 06:25:08;;;;;;;1.75;1.60;;;;;;;15.24;94.33;98484.98;1710540;83;28079;-67
2021/08/06 06:27:58;;;;;;;1.45;1.25;;;;;;;15.22;94.13;98487.31;1710636;83;29857;-67
2021/08/06 06:30:28;;;;;;;5.15;1.32;;;;;;;15.21;94.23;98484.37;1710588;83;25688;-66
2021/08/06 06:32:56;;;;;;;;;;;;;;;15.20;94.30;98480.09;1713109;83;25758;-67
2021/08/06 06:35:24;;;;;;;1.85;1.57;;;;;;;15.21;94.40;98482.25;1710671;83;25730;-67
2021/08/06 06:37:51;;;;;;;3.20;1.50;;;;;;;15.17;94.18;98480.88;1700595;83;27489;-67
2021/08/06 06:40:19;;;;;;;1.60;1.32;;;;;;;15.17;94.27;98479.52;1710468;83;25667;-67
2021/08/06 06:42:46;;;;;;;1.10;1.00;;;;;;;15.17;94.31;98476.80;1710507;83;26364;-67
2021/08/06 06:45:14;;;;;;;3.12;1.87;;;;;;;15.18;94.50;98472.12;1710590;83;26387;-67
2021/08/06 06:47:45;;;;;;;2.02;1.15;;;;;;;15.19;94.60;98471.73;1710559;83;25757;-67
2021/08/06 06:50:15;;;;;;;1.72;1.07;;;;;;;15.21;94.69;98477.57;1710674;82;27398;-67
2021/08/06 06:52:43;;;;;;;2.67;0.90;;;;;;;15.22;94.58;98479.14;1710521;83;25640;-66
2021/08/06 06:55:11;;;;;;;0.90;0.90;;;;;;;15.23;94.51;98482.64;1710461;83;25763;-67
2021/08/06 06:57:52;;;;;;;2.20;1.10;;;;;;;15.23;94.37;98477.96;1710511;83;25729;-67
2021/08/06 07:00:29;;;;;;;2.60;1.10;;;;;;;15.22;94.29;98485.15;1703490;83;25747;-67
2021/08/06 07:02:56;;;;;;;1.17;1.07;;;;;;;15.20;94.32;98478.72;1709651;83;27086;-67
2021/08/06 07:05:23;;;;;;;1.75;1.20;;;;;;;15.22;94.43;98478.34;1710443;83;25716;-67
2021/08/06 07:07:50;;;;;;;2.25;1.20;;;;;;;15.22;94.50;98483.80;1710489;83;25667;-68
2021/08/06 07:10:17;;;;;;;1.85;0.95;;;;;;;15.24;94.75;98482.25;1710496;83;25694;-67
2021/08/06 07:12:44;;;;;;;2.00;1.10;;;;;;;15.26;94.67;98484.59;1710568;83;25761;-67
2021/08/06 07:15:13;;;;;;;0.80;0.80;;;;;;;15.27;94.72;98483.42;1703459;83;27278;-67
2021/08/06 07:17:41;;;;;;;1.17;1.07;;;;;;;15.30;94.80;98490.83;1708546;83;25830;-67
2021/08/06 07:20:11;;;;;;;0.85;0.70;;;;;;;15.29;94.70;98488.70;1710601;83;25769;-67
2021/08/06 07:22:38;;;;;;;1.20;1.10;;;;;;;15.31;94.92;98493.17;1710479;83;25978;-67
2021/08/06 07:25:09;;;;;;;5.00;1.25;;;;;;;15.34;95.17;98490.27;1710499;83;25781;-67
2021/08/06 07:27:37;;;;;;;1.87;1.20;;;;;;;15.37;95.17;98492.80;1710541;83;27310;-67
2021/08/06 07:30:06;;;;;;;1.30;0.95;;;;;;;15.37;95.25;98491.43;1710392;83;25717;-67
2021/08/06 07:32:34;;;;;;;1.20;1.00;;;;;;;15.39;95.34;98487.73;1686301;83;30210;-67
2021/08/06 07:35:00;;;;;;;1.20;0.95;;;;;;;15.41;95.22;98481.31;1703408;84;25950;-67
2021/08/06 07:37:27;;;;;;;0.80;0.80;;;;;;;15.40;95.18;98480.55;1703415;84;25801;-67
2021/08/06 07:39:55;;;;;;;4.12;0.80;;;;;;;15.42;95.22;98485.61;1703373;84;28106;-67
2021/08/06 07:42:22;;;;;;;1.85;0.60;;;;;;;15.45;95.43;98486.98;1703272;84;25738;-67
2021/08/06 07:44:49;;;;;;;0.80;0.70;;;;;;;15.47;95.46;98486.00;1687129;83;25960;-67
2021/08/06 07:47:15;;;;;;;1.70;0.70;;;;;;;15.47;95.17;98481.92;1710473;83;26245;-67
2021/08/06 07:49:42;;;;;;;2.35;2.10;;;;;;;15.49;95.47;98487.78;1710404;83;25706;-67
2021/08/06 07:52:14;;;;;;;0.90;0.80;;;;;;;15.55;95.96;98488.77;1710377;83;27320;-67
2021/08/06 07:54:40;;;;;;;1.60;1.12;;;;;;;15.59;96.02;98480.00;1710484;83;25768;-67
2021/08/06 07:57:07;;;;;;;1.95;1.32;;;;;;;15.62;95.95;98478.64;1710494;83;25721;-67
2021/08/06 07:59:34;;;;;;;0.62;0.62;;;;;;;15.65;95.87;98475.16;1689069;84;25797;-67
2021/08/06 08:02:00;;;;;;;0.78;0.60;;;;;;;15.68;95.99;98481.76;1706082;84;25679;-68
2021/08/06 08:04:27;;;;;;;0.65;0.42;;;;;;;15.73;96.03;98488.78;1706177;84;27395;-68
2021/08/06 08:06:53;;;;;;;1.40;0.88;;;;;;;15.74;95.63;98486.27;1709356;83;25689;-68
2021/08/06 08:09:20;;;;;;;0.72;0.60;;;;;;;15.76;95.52;98489.41;1710495;83;25737;-67
2021/08/06 08:11:46;;;;;;;0.98;0.40;;;;;;;15.78;95.71;98477.53;1710458;83;25682;-68
2021/08/06 08:14:12;;;;;;;0.50;0.50;;;;;;;15.81;95.81;98488.44;1710543;83;25718;-68
2021/08/06 08:16:39;;;;;;;1.27;0.40;;;;;;;15.82;95.61;98485.91;1710479;83;28087;-68
2021/08/06 08:19:06;;;;;;;1.57;0.70;;;;;;;15.86;95.91;98483.19;1710017;83;25743;-69
2021/08/06 08:21:32;;;;;;;0.30;0.30;;;;;;;15.89;95.96;98483.01;1711833;83;25762;-66
2021/08/06 08:23:59;;;;;;;2.65;0.70;;;;;;;15.92;95.87;98483.00;1700318;83;25697;-65
2021/08/06 08:26:25;;;;;;;0.60;0.60;;;;;;;15.95;95.97;98484.16;1710555;83;25989;-67
2021/08/06 08:28:52;;;;;;;0.60;0.60;;;;;;;15.98;96.10;98478.70;1710465;83;27430;-67
2021/08/06 08:31:18;;;;;;;1.10;1.00;;;;;;;16.01;96.05;98486.70;1710473;83;25727;-67
2021/08/06 08:33:46;;;;;;;0.75;0.70;;;;;;;16.01;95.53;98483.98;1710433;83;25709;-67
2021/08/06 08:36:12;;;;;;;0.60;0.60;;;;;;;16.00;95.44;98476.95;1710485;83;25825;-67
2021/08/06 08:38:39;;;;;;;0.50;0.50;;;;;;;15.98;95.10;98484.16;1713103;83;26298;-67
2021/08/06 08:41:06;;;;;;;1.75;0.65;;;;;;;15.95;94.83;98482.20;1710387;83;27289;-67
2021/08/06 08:43:34;;;;;;;0.60;0.40;;;;;;;15.92;94.69;98483.57;1710378;83;25734;-67
2021/08/06 08:46:01;;;;;;;1.22;0.50;;;;;;;15.90;94.83;98488.64;1710581;83;25580;-67
2021/08/06 08:48:30;;;;;;;0.50;0.47;;;;;;;15.89;94.85;98483.01;1710344;83;25980;-67
2021/08/06 08:50:58;;;;;;;0.85;0.40;;;;;;;15.85;94.35;98489.80;1710389;83;25731;-67
2021/08/06 08:53:25;;;;;;;8.18;5.15;;;;;;;15.81;94.55;98487.66;1710529;83;27502;-67
2021/08/06 08:55:52;;;;;;;2.95;1.82;;;;;;;15.82;94.73;98483.78;1710458;83;25666;-67
2021/08/06 08:58:18;;;;;;;1.00;0.90;;;;;;;15.80;94.92;98483.36;1688497;83;25771;-67
2021/08/06 09:00:45;;;;;;;1.17;0.88;;;;;;;15.80;94.94;98486.89;1710595;83;25781;-67
2021/08/06 09:03:43;;;;;;;1.67;1.27;;;;;;;15.80;94.93;98484.73;1710437;83;25758;-67
2021/08/06 09:06:11;;;;;;;1.10;0.75;;;;;;;15.80;94.93;98487.45;1705872;83;29479;-67
2021/08/06 09:08:38;;;;;;;2.42;0.90;;;;;;;15.79;95.02;98494.86;1710382;83;25741;-67
2021/08/06 09:11:30;;;;;;;0.75;0.50;;;;;;;15.80;95.28;98492.34;1710456;83;25659;-67
2021/08/06 09:14:26;;;;;;;1.47;0.55;;;;;;;15.82;95.26;98496.05;1708579;83;25702;-67
2021/08/06 09:17:09;;;;;;;1.10;0.72;;;;;;;15.80;95.12;98493.70;1710463;83;25665;-67
2021/08/06 09:19:43;;;;;;;2.10;1.32;;;;;;;15.79;95.09;98490.00;1710421;83;27930;-67
2021/08/06 09:22:21;;;;;;;1.12;1.02;;;;;;;15.77;95.00;98493.11;1710260;83;25682;-67
2021/08/06 09:25:09;;;;;;;0.93;0.50;;;;;;;15.76;95.04;98488.81;1710325;83;25730;-67
2021/08/06 09:27:43;;;;;;;0.45;0.40;;;;;;;15.73;94.74;98493.64;1710583;83;25628;-67
2021/08/06 09:30:15;;;;;;;0.98;0.33;;;;;;;15.71;94.63;98498.70;1710621;83;25778;-67
2021/08/06 09:32:48;;;;;;;2.10;0.60;;;;;;;15.69;94.53;98504.55;1710510;83;27373;-67
2021/08/06 09:35:21;;;;;;;0.80;0.40;;;;;;;15.70;94.66;98501.25;1709675;83;25751;-65
2021/08/06 09:37:48;;;;;;;0.50;0.50;;;;;;;15.74;95.25;98497.17;1710386;83;25739;-65
2021/08/06 09:40:19;;;;;;;2.27;0.62;;;;;;;15.73;94.88;98499.69;1710464;83;25811;-65
2021/08/06 09:42:54;;;;;;;1.90;0.90;;;;;;;15.75;95.15;98499.54;1710717;83;26318;-66
2021/08/06 09:45:25;;;;;;;2.17;0.85;;;;;;;15.77;95.23;98500.52;1710537;83;27320;-66
2021/08/06 09:47:57;;;;;;;0.90;0.70;;;;;;;15.79;95.10;98500.91;1710103;83;25705;-65
2021/08/06 09:50:46;;;;;;;0.95;0.80;;;;;;;15.80;94.97;98505.17;1710602;83;26359;-66
2021/08/06 09:53:18;;;;;;;0.88;0.78;;;;;;;15.78;94.70;98506.95;1710735;83;25745;-65
2021/08/06 09:55:48;;;;;;;0.72;0.72;;;;;;;15.77;94.80;98501.88;1710452;83;25766;-66
2021/08/06 09:58:20;;;;;;;1.45;0.50;;;;;;;15.77;94.77;98507.33;1710578;83;27380;-66
2021/08/06 10:00:50;;;;;;;0.50;0.47;;;;;;;15.78;95.09;98508.31;1709804;83;25869;-66
2021/08/06 10:03:35;;;;;;;0.50;0.50;;;;;;;15.80;94.99;98513.34;1710031;83;25786;-66
2021/08/06 10:06:18;;;;;;;1.52;0.50;;;;;;;15.79;94.93;98511.81;1710578;83;25777;-66
2021/08/06 10:08:46;;;;;;;1.12;0.45;;;;;;;15.75;94.52;98507.72;1710597;83;25794;-66
2021/08/06 10:11:14;;;;;;;1.82;0.50;;;;;;;15.74;94.66;98512.93;1687017;84;27338;-66
2021/08/06 10:13:44;;;;;;;0.42;0.42;;;;;;;15.72;94.38;98517.22;1705512;83;25801;-67
2021/08/06 10:16:12;;;;;;;0.68;0.30;;;;;;;15.73;94.67;98529.08;1708832;83;26291;-66
2021/08/06 10:18:40;;;;;;;1.72;0.37;;;;;;;15.72;94.67;98522.08;1710665;83;26342;-66
2021/08/06 10:21:07;;;;;;;0.33;0.33;;;;;;;15.72;94.81;98528.13;1710554;83;26320;-66
2021/08/06 10:23:34;;;;;;;0.40;0.40;;;;;;;15.74;94.96;98531.23;1710303;83;27010;-66
2021/08/06 10:26:03;;;;;;;1.98;0.50;;;;;;;15.74;95.01;98532.60;1710553;83;25985;-66
2021/08/06 10:28:31;;;;;;;0.40;0.40;;;;;;;15.71;94.44;98535.50;1710654;83;25778;-66
2021/08/06 10:31:18;;;;;;;0.40;0.40;;;;;;;15.71;94.61;98531.41;1710650;83;25629;-66
2021/08/06 10:34:12;;;;;;;0.70;0.40;;;;;;;15.72;94.61;98537.66;1710543;83;25743;-66
2021/08/06 10:36:50;;;;;;;0.72;0.30;;;;;;;15.72;94.76;98532.98;1710457;83;27328;-66
2021/08/06 10:39:41;;;;;;;1.87;0.68;;;;;;;15.76;95.18;98533.02;1710314;83;25685;-66
2021/08/06 10:42:10;;;;;;;2.05;1.22;;;;;;;15.75;94.87;98540.42;1710487;83;25656;-66
2021/08/06 10:44:57;;;;;;;3.52;0.98;;;;;;;15.76;94.96;98535.74;1710774;83;25754;-66
2021/08/06 10:47:45;;;;;;;0.90;0.70;;;;;;;15.77;95.28;98544.90;1685302;83;25825;-66
2021/08/06 10:50:15;;;;;;;1.95;1.32;;;;;;;15.81;95.34;98542.95;1708581;83;29136;-65
2021/08/06 10:52:42;;;;;;;0.57;0.40;;;;;;;15.85;95.55;98547.05;1710545;83;25690;-65
2021/08/06 10:55:20;;;;;;;2.75;0.60;;;;;;;15.89;95.66;98545.71;1710511;83;25767;-65
2021/08/06 10:57:46;;;;;;;1.25;0.50;;;;;;;15.91;95.71;98546.10;1659303;83;25811;-65
2021/08/06 11:00:33;;;;;;;0.30;0.30;;;;;;;15.95;95.67;98550.38;1710594;83;26309;-66
2021/08/06 11:03:00;;;;;;;1.17;0.65;;;;;;;15.95;95.41;98552.33;1710526;83;27428;-66
2021/08/06 11:05:34;;;;;;;0.47;0.45;;;;;;;16.01;96.09;98559.73;1710444;83;25708;-66
2021/08/06 11:08:03;;;;;;;0.30;0.30;;;;;;;16.06;95.79;98552.54;1710523;83;25703;-66
2021/08/06 11:10:50;;;;;;;;;;;;;;;16.09;95.83;98548.83;1708557;84;26285;-66
2021/08/06 11:13:37;;;;;;;2.27;0.72;;;;;;;16.14;96.19;98554.70;1706038;84;25893;-66
2021/08/06 11:16:10;;;;;;;0.37;0.35;;;;;;;16.19;96.38;98552.16;1705977;84;27399;-66
2021/08/06 11:18:45;;;;;;;0.30;0.30;;;;;;;16.25;96.37;98553.33;1705360;83;25966;-65
2021/08/06 11:21:15;;;;;;;0.65;0.40;;;;;;;16.30;95.97;98556.27;1705606;83;25927;-65
2021/08/06 11:23:42;;;;;;;0.57;0.50;;;;;;;16.32;95.85;98549.83;1705866;83;25998;-66
2021/08/06 11:26:11;;;;;;;1.70;0.40;;;;;;;16.33;95.60;98558.99;1706191;84;26377;-66
2021/08/06 11:28:38;;;;;;;0.68;0.40;;;;;;;16.37;95.76;98562.48;1712780;83;27924;-66
2021/08/06 11:31:17;;;;;;;0.70;0.70;;;;;;;16.40;95.71;98565.80;1710467;83;25706;-66
2021/08/06 11:34:04;;;;;;;0.23;0.23;;;;;;;16.40;95.33;98565.80;1712003;83;25725;-66
2021/08/06 11:36:31;;;;;;;3.87;2.00;;;;;;;16.43;95.41;98558.21;1710488;83;25699;-66
2021/08/06 11:39:02;;;;;;;1.77;0.98;;;;;;;16.41;94.85;98563.84;1710536;83;26453;-66
2021/08/06 11:41:30;;;;;;;1.52;0.70;;;;;;;16.43;95.16;98562.90;1710323;83;27340;-66
2021/08/06 11:43:58;;;;;;;1.77;1.35;;;;;;;16.43;95.00;98557.44;1710389;83;25814;-66
2021/08/06 11:46:25;;;;;;;0.47;0.47;;;;;;;16.37;94.19;98562.48;1710449;83;25710;-65